sensor_id;sensor_type;location;lat;lon;timestamp;P1;durP1;ratioP1;P2;durP2;ratioP2
28481;SDS011;15703;49.588;6.260;2022-11-21T00:00:00;4.97;;;3.13;;
28481;SDS011;15703;49.588;6.260;2022-11-21T00:02:28;8.40;;;2.80;;
28481;SDS011;15703;49.588;6.260;2022-11-21T00:04:50;7.30;;;2.67;;
28481;SDS011;15703;49.588;6.260;2022-11-21T00:07:12;7.70;;;2.83;;
28481;SDS011;15703;49.588;6.260;2022-11-21T00:09:35;2.93;;;2.37;;
28481;SDS011;15703;49.588;6.260;2022-11-21T00:11:57;6.23;;;2.70;;
28481;SDS011;15703;49.588;6.260;2022-11-21T00:14:20;7.13;;;2.53;;
28481;SDS011;15703;49.588;6.260;2022-11-21T00:16:42;6.13;;;3.37;;
28481;SDS011;15703;49.588;6.260;2022-11-21T00:19:06;7.03;;;3.07;;
28481;SDS011;15703;49.588;6.260;2022-11-21T00:21:28;4.63;;;2.50;;
28481;SDS011;15703;49.588;6.260;2022-11-21T00:23:51;7.60;;;2.53;;
28481;SDS011;15703;49.588;6.260;2022-11-21T00:26:14;5.90;;;2.80;;
28481;SDS011;15703;49.588;6.260;2022-11-21T00:28:37;7.60;;;2.63;;
28481;SDS011;15703;49.588;6.260;2022-11-21T00:31:00;4.40;;;2.50;;
28481;SDS011;15703;49.588;6.260;2022-11-21T00:33:22;5.30;;;2.53;;
28481;SDS011;15703;49.588;6.260;2022-11-21T00:35:44;4.77;;;2.60;;
28481;SDS011;15703;49.588;6.260;2022-11-21T00:38:06;4.43;;;2.73;;
28481;SDS011;15703;49.588;6.260;2022-11-21T00:40:28;5.70;;;2.60;;
28481;SDS011;15703;49.588;6.260;2022-11-21T00:42:51;5.70;;;2.93;;
28481;SDS011;15703;49.588;6.260;2022-11-21T00:45:13;4.03;;;2.30;;
28481;SDS011;15703;49.588;6.260;2022-11-21T00:47:41;6.03;;;2.60;;
28481;SDS011;15703;49.588;6.260;2022-11-21T00:50:03;3.47;;;2.17;;
28481;SDS011;15703;49.588;6.260;2022-11-21T00:52:26;7.60;;;2.47;;
28481;SDS011;15703;49.588;6.260;2022-11-21T00:54:48;9.13;;;2.53;;
28481;SDS011;15703;49.588;6.260;2022-11-21T00:57:10;8.03;;;3.10;;
28481;SDS011;15703;49.588;6.260;2022-11-21T00:59:32;4.47;;;2.23;;
28481;SDS011;15703;49.588;6.260;2022-11-21T01:01:55;1.73;;;1.63;;
28481;SDS011;15703;49.588;6.260;2022-11-21T01:04:17;3.20;;;1.73;;
28481;SDS011;15703;49.588;6.260;2022-11-21T01:06:39;2.30;;;2.00;;
28481;SDS011;15703;49.588;6.260;2022-11-21T01:09:02;1.93;;;1.80;;
28481;SDS011;15703;49.588;6.260;2022-11-21T01:11:24;3.03;;;2.10;;
28481;SDS011;15703;49.588;6.260;2022-11-21T01:13:47;2.90;;;2.10;;
28481;SDS011;15703;49.588;6.260;2022-11-21T01:16:11;3.20;;;2.30;;
28481;SDS011;15703;49.588;6.260;2022-11-21T01:18:33;4.93;;;2.60;;
28481;SDS011;15703;49.588;6.260;2022-11-21T01:21:02;5.63;;;2.43;;
28481;SDS011;15703;49.588;6.260;2022-11-21T01:23:25;5.93;;;3.00;;
28481;SDS011;15703;49.588;6.260;2022-11-21T01:25:48;10.17;;;3.57;;
28481;SDS011;15703;49.588;6.260;2022-11-21T01:28:10;5.23;;;3.00;;
28481;SDS011;15703;49.588;6.260;2022-11-21T01:30:32;8.67;;;3.10;;
28481;SDS011;15703;49.588;6.260;2022-11-21T01:32:55;8.60;;;3.10;;
28481;SDS011;15703;49.588;6.260;2022-11-21T01:35:17;5.63;;;3.27;;
28481;SDS011;15703;49.588;6.260;2022-11-21T01:37:39;7.70;;;2.80;;
28481;SDS011;15703;49.588;6.260;2022-11-21T01:40:02;6.53;;;3.13;;
28481;SDS011;15703;49.588;6.260;2022-11-21T01:42:24;5.47;;;3.20;;
28481;SDS011;15703;49.588;6.260;2022-11-21T01:44:50;7.50;;;3.20;;
28481;SDS011;15703;49.588;6.260;2022-11-21T01:47:13;3.97;;;3.00;;
28481;SDS011;15703;49.588;6.260;2022-11-21T01:49:35;6.30;;;3.53;;
28481;SDS011;15703;49.588;6.260;2022-11-21T01:52:08;6.70;;;3.60;;
28481;SDS011;15703;49.588;6.260;2022-11-21T01:54:35;6.73;;;3.40;;
28481;SDS011;15703;49.588;6.260;2022-11-21T01:57:00;7.70;;;3.83;;
28481;SDS011;15703;49.588;6.260;2022-11-21T01:59:29;8.97;;;3.50;;
28481;SDS011;15703;49.588;6.260;2022-11-21T02:01:52;7.17;;;3.80;;
28481;SDS011;15703;49.588;6.260;2022-11-21T02:04:15;11.67;;;3.67;;
28481;SDS011;15703;49.588;6.260;2022-11-21T02:06:37;10.07;;;4.20;;
28481;SDS011;15703;49.588;6.260;2022-11-21T02:09:00;7.13;;;3.60;;
28481;SDS011;15703;49.588;6.260;2022-11-21T02:13:44;13.33;;;4.87;;
28481;SDS011;15703;49.588;6.260;2022-11-21T02:16:07;13.17;;;4.77;;
28481;SDS011;15703;49.588;6.260;2022-11-21T02:18:29;14.50;;;4.30;;
28481;SDS011;15703;49.588;6.260;2022-11-21T02:20:59;6.97;;;4.13;;
28481;SDS011;15703;49.588;6.260;2022-11-21T02:23:32;16.47;;;5.17;;
28481;SDS011;15703;49.588;6.260;2022-11-21T02:25:57;11.93;;;5.20;;
28481;SDS011;15703;49.588;6.260;2022-11-21T02:28:20;10.13;;;4.23;;
28481;SDS011;15703;49.588;6.260;2022-11-21T02:30:43;10.07;;;4.77;;
28481;SDS011;15703;49.588;6.260;2022-11-21T02:33:06;6.83;;;4.07;;
28481;SDS011;15703;49.588;6.260;2022-11-21T02:35:28;10.10;;;4.30;;
28481;SDS011;15703;49.588;6.260;2022-11-21T02:40:31;12.10;;;5.17;;
28481;SDS011;15703;49.588;6.260;2022-11-21T02:43:00;6.17;;;4.03;;
28481;SDS011;15703;49.588;6.260;2022-11-21T02:45:28;8.73;;;4.53;;
28481;SDS011;15703;49.588;6.260;2022-11-21T02:47:52;17.20;;;4.67;;
28481;SDS011;15703;49.588;6.260;2022-11-21T02:50:24;10.73;;;4.10;;
28481;SDS011;15703;49.588;6.260;2022-11-21T02:52:47;9.37;;;4.20;;
28481;SDS011;15703;49.588;6.260;2022-11-21T02:55:10;10.40;;;4.20;;
28481;SDS011;15703;49.588;6.260;2022-11-21T02:57:33;6.93;;;3.80;;
28481;SDS011;15703;49.588;6.260;2022-11-21T02:59:56;11.93;;;4.63;;
28481;SDS011;15703;49.588;6.260;2022-11-21T03:02:18;8.13;;;3.93;;
28481;SDS011;15703;49.588;6.260;2022-11-21T03:04:40;9.47;;;3.67;;
28481;SDS011;15703;49.588;6.260;2022-11-21T03:07:02;7.83;;;4.33;;
28481;SDS011;15703;49.588;6.260;2022-11-21T03:09:25;14.73;;;4.33;;
28481;SDS011;15703;49.588;6.260;2022-11-21T03:11:47;10.03;;;3.73;;
28481;SDS011;15703;49.588;6.260;2022-11-21T03:14:09;9.67;;;4.47;;
28481;SDS011;15703;49.588;6.260;2022-11-21T03:16:31;10.47;;;4.57;;
28481;SDS011;15703;49.588;6.260;2022-11-21T03:18:54;8.00;;;4.10;;
28481;SDS011;15703;49.588;6.260;2022-11-21T03:21:18;9.00;;;4.33;;
28481;SDS011;15703;49.588;6.260;2022-11-21T03:23:40;7.40;;;4.13;;
28481;SDS011;15703;49.588;6.260;2022-11-21T03:26:02;9.13;;;4.33;;
28481;SDS011;15703;49.588;6.260;2022-11-21T03:28:24;8.70;;;4.23;;
28481;SDS011;15703;49.588;6.260;2022-11-21T03:30:47;11.67;;;3.67;;
28481;SDS011;15703;49.588;6.260;2022-11-21T03:33:09;8.50;;;3.10;;
28481;SDS011;15703;49.588;6.260;2022-11-21T03:35:31;7.60;;;4.53;;
28481;SDS011;15703;49.588;6.260;2022-11-21T03:37:54;7.10;;;3.83;;
28481;SDS011;15703;49.588;6.260;2022-11-21T03:40:21;9.13;;;3.70;;
28481;SDS011;15703;49.588;6.260;2022-11-21T03:42:43;7.73;;;3.83;;
28481;SDS011;15703;49.588;6.260;2022-11-21T03:45:05;7.93;;;3.20;;
28481;SDS011;15703;49.588;6.260;2022-11-21T03:47:28;10.90;;;4.03;;
28481;SDS011;15703;49.588;6.260;2022-11-21T03:49:50;5.33;;;3.60;;
28481;SDS011;15703;49.588;6.260;2022-11-21T03:52:12;8.80;;;3.37;;
28481;SDS011;15703;49.588;6.260;2022-11-21T03:54:35;9.27;;;3.77;;
28481;SDS011;15703;49.588;6.260;2022-11-21T03:56:57;8.43;;;3.73;;
28481;SDS011;15703;49.588;6.260;2022-11-21T03:59:19;7.77;;;3.50;;
28481;SDS011;15703;49.588;6.260;2022-11-21T04:01:41;8.30;;;3.50;;
28481;SDS011;15703;49.588;6.260;2022-11-21T04:04:04;9.87;;;3.50;;
28481;SDS011;15703;49.588;6.260;2022-11-21T04:06:26;4.20;;;3.43;;
28481;SDS011;15703;49.588;6.260;2022-11-21T04:08:51;10.87;;;4.00;;
28481;SDS011;15703;49.588;6.260;2022-11-21T04:11:13;7.23;;;3.47;;
28481;SDS011;15703;49.588;6.260;2022-11-21T04:13:36;6.40;;;3.20;;
28481;SDS011;15703;49.588;6.260;2022-11-21T04:15:58;7.77;;;3.47;;
28481;SDS011;15703;49.588;6.260;2022-11-21T04:18:20;9.20;;;4.10;;
28481;SDS011;15703;49.588;6.260;2022-11-21T04:20:43;5.93;;;3.90;;
28481;SDS011;15703;49.588;6.260;2022-11-21T04:23:05;6.30;;;3.60;;
28481;SDS011;15703;49.588;6.260;2022-11-21T04:25:31;6.17;;;3.83;;
28481;SDS011;15703;49.588;6.260;2022-11-21T04:27:57;9.00;;;3.63;;
28481;SDS011;15703;49.588;6.260;2022-11-21T04:30:19;6.43;;;3.80;;
28481;SDS011;15703;49.588;6.260;2022-11-21T04:32:41;7.17;;;3.93;;
28481;SDS011;15703;49.588;6.260;2022-11-21T04:35:04;7.03;;;3.97;;
28481;SDS011;15703;49.588;6.260;2022-11-21T04:37:26;6.10;;;3.40;;
28481;SDS011;15703;49.588;6.260;2022-11-21T04:39:49;5.80;;;3.37;;
28481;SDS011;15703;49.588;6.260;2022-11-21T04:42:11;5.37;;;3.67;;
28481;SDS011;15703;49.588;6.260;2022-11-21T04:44:33;6.07;;;3.97;;
28481;SDS011;15703;49.588;6.260;2022-11-21T04:46:55;6.77;;;4.00;;
28481;SDS011;15703;49.588;6.260;2022-11-21T04:49:25;8.57;;;4.03;;
28481;SDS011;15703;49.588;6.260;2022-11-21T04:51:47;6.70;;;3.53;;
28481;SDS011;15703;49.588;6.260;2022-11-21T04:54:09;10.30;;;3.83;;
28481;SDS011;15703;49.588;6.260;2022-11-21T04:56:31;6.50;;;4.07;;
28481;SDS011;15703;49.588;6.260;2022-11-21T04:58:54;8.47;;;3.90;;
28481;SDS011;15703;49.588;6.260;2022-11-21T05:01:16;11.43;;;4.27;;
28481;SDS011;15703;49.588;6.260;2022-11-21T05:03:38;11.27;;;3.90;;
28481;SDS011;15703;49.588;6.260;2022-11-21T05:06:01;8.70;;;3.80;;
28481;SDS011;15703;49.588;6.260;2022-11-21T05:08:23;6.20;;;3.33;;
28481;SDS011;15703;49.588;6.260;2022-11-21T05:10:45;4.20;;;3.67;;
28481;SDS011;15703;49.588;6.260;2022-11-21T05:13:26;9.57;;;3.83;;
28481;SDS011;15703;49.588;6.260;2022-11-21T05:15:55;7.73;;;4.17;;
28481;SDS011;15703;49.588;6.260;2022-11-21T05:18:17;8.70;;;4.20;;
28481;SDS011;15703;49.588;6.260;2022-11-21T05:20:40;9.67;;;3.67;;
28481;SDS011;15703;49.588;6.260;2022-11-21T05:23:02;11.07;;;3.97;;
28481;SDS011;15703;49.588;6.260;2022-11-21T05:25:24;5.37;;;3.47;;
28481;SDS011;15703;49.588;6.260;2022-11-21T05:27:47;6.67;;;3.67;;
28481;SDS011;15703;49.588;6.260;2022-11-21T05:30:10;6.47;;;3.27;;
28481;SDS011;15703;49.588;6.260;2022-11-21T05:32:42;5.20;;;3.70;;
28481;SDS011;15703;49.588;6.260;2022-11-21T05:35:04;18.13;;;4.10;;
28481;SDS011;15703;49.588;6.260;2022-11-21T05:37:28;8.27;;;3.93;;
28481;SDS011;15703;49.588;6.260;2022-11-21T05:39:50;8.37;;;3.97;;
28481;SDS011;15703;49.588;6.260;2022-11-21T05:42:12;5.40;;;3.63;;
28481;SDS011;15703;49.588;6.260;2022-11-21T05:44:35;10.53;;;3.83;;
28481;SDS011;15703;49.588;6.260;2022-11-21T05:46:57;7.00;;;3.80;;
28481;SDS011;15703;49.588;6.260;2022-11-21T05:49:19;4.67;;;3.77;;
28481;SDS011;15703;49.588;6.260;2022-11-21T05:51:42;6.50;;;4.30;;
28481;SDS011;15703;49.588;6.260;2022-11-21T05:54:04;8.17;;;4.00;;
28481;SDS011;15703;49.588;6.260;2022-11-21T05:56:26;4.67;;;3.53;;
28481;SDS011;15703;49.588;6.260;2022-11-21T05:58:49;7.40;;;3.57;;
28481;SDS011;15703;49.588;6.260;2022-11-21T06:01:12;10.10;;;4.13;;
28481;SDS011;15703;49.588;6.260;2022-11-21T06:03:35;10.30;;;3.57;;
28481;SDS011;15703;49.588;6.260;2022-11-21T06:06:03;9.27;;;4.10;;
28481;SDS011;15703;49.588;6.260;2022-11-21T06:08:26;6.53;;;3.73;;
28481;SDS011;15703;49.588;6.260;2022-11-21T06:10:49;5.07;;;3.20;;
28481;SDS011;15703;49.588;6.260;2022-11-21T06:13:11;11.37;;;3.90;;
28481;SDS011;15703;49.588;6.260;2022-11-21T06:15:43;9.90;;;4.10;;
28481;SDS011;15703;49.588;6.260;2022-11-21T06:18:05;9.93;;;4.20;;
28481;SDS011;15703;49.588;6.260;2022-11-21T06:20:27;6.30;;;4.00;;
28481;SDS011;15703;49.588;6.260;2022-11-21T06:22:50;6.73;;;3.67;;
28481;SDS011;15703;49.588;6.260;2022-11-21T06:25:13;8.30;;;4.40;;
28481;SDS011;15703;49.588;6.260;2022-11-21T06:27:35;7.93;;;4.37;;
28481;SDS011;15703;49.588;6.260;2022-11-21T06:29:58;9.57;;;4.43;;
28481;SDS011;15703;49.588;6.260;2022-11-21T06:32:20;8.17;;;4.50;;
28481;SDS011;15703;49.588;6.260;2022-11-21T06:34:42;9.07;;;4.27;;
28481;SDS011;15703;49.588;6.260;2022-11-21T06:37:05;9.43;;;4.93;;
28481;SDS011;15703;49.588;6.260;2022-11-21T06:39:27;8.17;;;4.17;;
28481;SDS011;15703;49.588;6.260;2022-11-21T06:41:51;6.63;;;4.33;;
28481;SDS011;15703;49.588;6.260;2022-11-21T06:44:21;9.83;;;4.40;;
28481;SDS011;15703;49.588;6.260;2022-11-21T06:46:44;8.67;;;4.20;;
28481;SDS011;15703;49.588;6.260;2022-11-21T06:49:11;9.30;;;4.40;;
28481;SDS011;15703;49.588;6.260;2022-11-21T06:51:34;11.10;;;4.60;;
28481;SDS011;15703;49.588;6.260;2022-11-21T06:53:57;6.33;;;4.33;;
28481;SDS011;15703;49.588;6.260;2022-11-21T06:56:23;7.70;;;4.33;;
28481;SDS011;15703;49.588;6.260;2022-11-21T06:58:46;5.80;;;3.70;;
28481;SDS011;15703;49.588;6.260;2022-11-21T07:01:09;4.67;;;3.77;;
28481;SDS011;15703;49.588;6.260;2022-11-21T07:03:32;7.13;;;4.80;;
28481;SDS011;15703;49.588;6.260;2022-11-21T07:05:54;7.30;;;3.63;;
28481;SDS011;15703;49.588;6.260;2022-11-21T07:08:21;8.47;;;3.83;;
28481;SDS011;15703;49.588;6.260;2022-11-21T07:10:43;6.87;;;4.23;;
28481;SDS011;15703;49.588;6.260;2022-11-21T07:13:31;10.43;;;5.00;;
28481;SDS011;15703;49.588;6.260;2022-11-21T07:15:58;6.37;;;4.50;;
28481;SDS011;15703;49.588;6.260;2022-11-21T07:18:21;5.60;;;4.23;;
28481;SDS011;15703;49.588;6.260;2022-11-21T07:20:47;5.87;;;4.10;;
28481;SDS011;15703;49.588;6.260;2022-11-21T07:23:12;7.03;;;4.20;;
28481;SDS011;15703;49.588;6.260;2022-11-21T07:25:35;4.77;;;4.23;;
28481;SDS011;15703;49.588;6.260;2022-11-21T07:28:01;7.77;;;4.80;;
28481;SDS011;15703;49.588;6.260;2022-11-21T07:30:25;7.63;;;4.53;;
28481;SDS011;15703;49.588;6.260;2022-11-21T07:32:53;17.20;;;4.53;;
28481;SDS011;15703;49.588;6.260;2022-11-21T07:35:16;6.40;;;4.10;;
28481;SDS011;15703;49.588;6.260;2022-11-21T07:37:46;5.50;;;4.43;;
28481;SDS011;15703;49.588;6.260;2022-11-21T07:40:10;10.40;;;5.53;;
28481;SDS011;15703;49.588;6.260;2022-11-21T07:42:32;6.60;;;4.87;;
28481;SDS011;15703;49.588;6.260;2022-11-21T07:44:55;6.77;;;3.87;;
28481;SDS011;15703;49.588;6.260;2022-11-21T07:47:29;9.70;;;4.70;;
28481;SDS011;15703;49.588;6.260;2022-11-21T07:49:54;5.30;;;4.13;;
28481;SDS011;15703;49.588;6.260;2022-11-21T07:52:34;7.53;;;4.53;;
28481;SDS011;15703;49.588;6.260;2022-11-21T07:54:58;9.20;;;5.73;;
28481;SDS011;15703;49.588;6.260;2022-11-21T07:57:23;11.13;;;5.30;;
28481;SDS011;15703;49.588;6.260;2022-11-21T07:59:51;9.80;;;5.80;;
28481;SDS011;15703;49.588;6.260;2022-11-21T08:02:18;16.17;;;6.60;;
28481;SDS011;15703;49.588;6.260;2022-11-21T08:04:41;25.73;;;10.87;;
28481;SDS011;15703;49.588;6.260;2022-11-21T08:07:05;20.27;;;8.87;;
28481;SDS011;15703;49.588;6.260;2022-11-21T08:09:28;13.73;;;7.60;;
28481;SDS011;15703;49.588;6.260;2022-11-21T08:11:51;21.57;;;8.10;;
28481;SDS011;15703;49.588;6.260;2022-11-21T08:14:13;12.57;;;6.53;;
28481;SDS011;15703;49.588;6.260;2022-11-21T08:16:54;13.13;;;6.83;;
28481;SDS011;15703;49.588;6.260;2022-11-21T08:19:30;11.07;;;6.87;;
28481;SDS011;15703;49.588;6.260;2022-11-21T08:22:07;11.60;;;7.17;;
28481;SDS011;15703;49.588;6.260;2022-11-21T08:24:29;19.07;;;7.60;;
28481;SDS011;15703;49.588;6.260;2022-11-21T08:26:54;11.13;;;6.53;;
28481;SDS011;15703;49.588;6.260;2022-11-21T08:29:20;10.63;;;6.27;;
28481;SDS011;15703;49.588;6.260;2022-11-21T08:31:43;11.13;;;6.80;;
28481;SDS011;15703;49.588;6.260;2022-11-21T08:34:09;14.10;;;6.10;;
28481;SDS011;15703;49.588;6.260;2022-11-21T08:36:37;12.90;;;5.83;;
28481;SDS011;15703;49.588;6.260;2022-11-21T08:39:03;11.13;;;5.13;;
28481;SDS011;15703;49.588;6.260;2022-11-21T08:41:26;11.03;;;5.80;;
28481;SDS011;15703;49.588;6.260;2022-11-21T08:44:13;10.93;;;5.83;;
28481;SDS011;15703;49.588;6.260;2022-11-21T08:46:36;11.83;;;5.80;;
28481;SDS011;15703;49.588;6.260;2022-11-21T08:48:58;11.30;;;4.60;;
28481;SDS011;15703;49.588;6.260;2022-11-21T08:51:22;12.30;;;5.43;;
28481;SDS011;15703;49.588;6.260;2022-11-21T08:53:44;13.43;;;5.73;;
28481;SDS011;15703;49.588;6.260;2022-11-21T08:56:10;14.90;;;5.73;;
28481;SDS011;15703;49.588;6.260;2022-11-21T08:58:33;13.73;;;4.87;;
28481;SDS011;15703;49.588;6.260;2022-11-21T09:00:59;16.77;;;4.90;;
28481;SDS011;15703;49.588;6.260;2022-11-21T09:03:25;17.93;;;5.17;;
28481;SDS011;15703;49.588;6.260;2022-11-21T09:05:54;14.30;;;4.40;;
28481;SDS011;15703;49.588;6.260;2022-11-21T09:08:20;14.73;;;5.20;;
28481;SDS011;15703;49.588;6.260;2022-11-21T09:10:45;16.80;;;4.53;;
28481;SDS011;15703;49.588;6.260;2022-11-21T09:13:11;16.23;;;5.30;;
28481;SDS011;15703;49.588;6.260;2022-11-21T09:15:35;11.60;;;4.80;;
28481;SDS011;15703;49.588;6.260;2022-11-21T09:18:16;14.53;;;4.90;;
28481;SDS011;15703;49.588;6.260;2022-11-21T09:20:39;10.67;;;4.90;;
28481;SDS011;15703;49.588;6.260;2022-11-21T09:23:12;12.07;;;4.80;;
28481;SDS011;15703;49.588;6.260;2022-11-21T09:25:34;13.40;;;5.27;;
28481;SDS011;15703;49.588;6.260;2022-11-21T09:28:01;12.60;;;5.07;;
28481;SDS011;15703;49.588;6.260;2022-11-21T09:30:24;12.30;;;4.30;;
28481;SDS011;15703;49.588;6.260;2022-11-21T09:32:47;15.70;;;5.00;;
28481;SDS011;15703;49.588;6.260;2022-11-21T09:35:13;19.50;;;5.10;;
28481;SDS011;15703;49.588;6.260;2022-11-21T09:37:36;16.70;;;5.23;;
28481;SDS011;15703;49.588;6.260;2022-11-21T09:39:59;11.03;;;5.03;;
28481;SDS011;15703;49.588;6.260;2022-11-21T09:45:04;15.37;;;4.90;;
28481;SDS011;15703;49.588;6.260;2022-11-21T09:47:28;13.40;;;4.57;;
28481;SDS011;15703;49.588;6.260;2022-11-21T09:49:56;14.33;;;4.10;;
28481;SDS011;15703;49.588;6.260;2022-11-21T09:52:20;18.33;;;4.87;;
28481;SDS011;15703;49.588;6.260;2022-11-21T09:54:51;15.17;;;4.60;;
28481;SDS011;15703;49.588;6.260;2022-11-21T09:57:17;15.67;;;4.37;;
28481;SDS011;15703;49.588;6.260;2022-11-21T09:59:43;9.03;;;3.63;;
28481;SDS011;15703;49.588;6.260;2022-11-21T10:02:15;11.77;;;3.50;;
28481;SDS011;15703;49.588;6.260;2022-11-21T10:04:39;11.60;;;3.07;;
28481;SDS011;15703;49.588;6.260;2022-11-21T10:09:43;7.43;;;2.90;;
28481;SDS011;15703;49.588;6.260;2022-11-21T10:12:30;16.40;;;3.57;;
28481;SDS011;15703;49.588;6.260;2022-11-21T10:25:32;10.83;;;3.10;;
28481;SDS011;15703;49.588;6.260;2022-11-21T10:28:04;11.60;;;3.40;;
28481;SDS011;15703;49.588;6.260;2022-11-21T10:30:29;7.37;;;2.97;;
28481;SDS011;15703;49.588;6.260;2022-11-21T10:32:52;8.33;;;4.03;;
28481;SDS011;15703;49.588;6.260;2022-11-21T10:35:33;13.20;;;4.27;;
28481;SDS011;15703;49.588;6.260;2022-11-21T10:38:00;13.13;;;3.67;;
28481;SDS011;15703;49.588;6.260;2022-11-21T10:45:54;15.63;;;4.37;;
28481;SDS011;15703;49.588;6.260;2022-11-21T10:48:18;11.17;;;3.70;;
28481;SDS011;15703;49.588;6.260;2022-11-21T10:55:57;12.93;;;3.70;;
28481;SDS011;15703;49.588;6.260;2022-11-21T10:58:27;11.40;;;3.67;;
28481;SDS011;15703;49.588;6.260;2022-11-21T11:00:57;9.80;;;3.30;;
28481;SDS011;15703;49.588;6.260;2022-11-21T11:03:20;7.07;;;3.37;;
28481;SDS011;15703;49.588;6.260;2022-11-21T11:05:52;7.77;;;3.53;;
28481;SDS011;15703;49.588;6.260;2022-11-21T11:08:19;18.07;;;4.30;;
28481;SDS011;15703;49.588;6.260;2022-11-21T11:10:43;14.10;;;4.47;;
28481;SDS011;15703;49.588;6.260;2022-11-21T11:13:24;14.97;;;4.90;;
28481;SDS011;15703;49.588;6.260;2022-11-21T11:16:14;11.43;;;3.83;;
28481;SDS011;15703;49.588;6.260;2022-11-21T11:18:38;14.57;;;4.03;;
28481;SDS011;15703;49.588;6.260;2022-11-21T11:21:12;15.33;;;4.67;;
28481;SDS011;15703;49.588;6.260;2022-11-21T11:23:35;16.60;;;4.80;;
28481;SDS011;15703;49.588;6.260;2022-11-21T11:25:59;14.90;;;4.83;;
28481;SDS011;15703;49.588;6.260;2022-11-21T11:28:21;11.50;;;5.07;;
28481;SDS011;15703;49.588;6.260;2022-11-21T11:30:45;11.13;;;4.23;;
28481;SDS011;15703;49.588;6.260;2022-11-21T11:35:55;9.07;;;3.50;;
28481;SDS011;15703;49.588;6.260;2022-11-21T11:38:21;11.77;;;4.07;;
28481;SDS011;15703;49.588;6.260;2022-11-21T11:40:48;10.43;;;3.90;;
28481;SDS011;15703;49.588;6.260;2022-11-21T11:45:56;9.27;;;3.90;;
28481;SDS011;15703;49.588;6.260;2022-11-21T11:48:41;13.73;;;4.03;;
28481;SDS011;15703;49.588;6.260;2022-11-21T11:51:27;16.37;;;4.00;;
28481;SDS011;15703;49.588;6.260;2022-11-21T11:53:54;17.40;;;4.17;;
28481;SDS011;15703;49.588;6.260;2022-11-21T11:56:23;12.90;;;4.10;;
28481;SDS011;15703;49.588;6.260;2022-11-21T11:58:55;13.23;;;3.83;;
28481;SDS011;15703;49.588;6.260;2022-11-21T12:04:28;7.70;;;3.93;;
28481;SDS011;15703;49.588;6.260;2022-11-21T12:06:40;13.33;;;3.70;;
28481;SDS011;15703;49.588;6.260;2022-11-21T12:10:10;16.60;;;3.93;;
28481;SDS011;15703;49.588;6.260;2022-11-21T12:12:12;15.70;;;4.53;;
28481;SDS011;15703;49.588;6.260;2022-11-21T12:17:32;13.73;;;4.87;;
28481;SDS011;15703;49.588;6.260;2022-11-21T12:19:56;11.73;;;3.60;;
28481;SDS011;15703;49.588;6.260;2022-11-21T12:22:20;15.47;;;3.83;;
28481;SDS011;15703;49.588;6.260;2022-11-21T12:24:42;19.33;;;4.23;;
28481;SDS011;15703;49.588;6.260;2022-11-21T12:30:07;9.77;;;3.47;;
28481;SDS011;15703;49.588;6.260;2022-11-21T12:42:19;16.97;;;4.13;;
28481;SDS011;15703;49.588;6.260;2022-11-21T12:47:49;16.00;;;4.20;;
28481;SDS011;15703;49.588;6.260;2022-11-21T12:53:44;11.63;;;4.27;;
28481;SDS011;15703;49.588;6.260;2022-11-21T12:56:31;15.67;;;4.73;;
28481;SDS011;15703;49.588;6.260;2022-11-21T12:58:58;16.20;;;4.77;;
28481;SDS011;15703;49.588;6.260;2022-11-21T13:01:24;16.40;;;4.30;;
28481;SDS011;15703;49.588;6.260;2022-11-21T13:06:15;13.67;;;4.13;;
28481;SDS011;15703;49.588;6.260;2022-11-21T13:08:39;13.87;;;4.13;;
28481;SDS011;15703;49.588;6.260;2022-11-21T13:11:07;14.33;;;4.30;;
28481;SDS011;15703;49.588;6.260;2022-11-21T13:13:55;18.87;;;4.37;;
28481;SDS011;15703;49.588;6.260;2022-11-21T13:16:22;16.90;;;4.33;;
28481;SDS011;15703;49.588;6.260;2022-11-21T13:18:59;14.70;;;4.70;;
28481;SDS011;15703;49.588;6.260;2022-11-21T13:21:41;13.50;;;4.97;;
28481;SDS011;15703;49.588;6.260;2022-11-21T13:24:11;15.40;;;4.00;;
28481;SDS011;15703;49.588;6.260;2022-11-21T13:26:54;19.13;;;4.83;;
28481;SDS011;15703;49.588;6.260;2022-11-21T13:29:17;15.10;;;4.37;;
28481;SDS011;15703;49.588;6.260;2022-11-21T13:31:40;16.90;;;4.67;;
28481;SDS011;15703;49.588;6.260;2022-11-21T13:36:50;13.33;;;3.60;;
28481;SDS011;15703;49.588;6.260;2022-11-21T13:51:58;13.17;;;3.97;;
28481;SDS011;15703;49.588;6.260;2022-11-21T13:54:36;13.30;;;4.50;;
28481;SDS011;15703;49.588;6.260;2022-11-21T14:02:39;16.77;;;3.73;;
28481;SDS011;15703;49.588;6.260;2022-11-21T14:07:29;11.83;;;3.63;;
28481;SDS011;15703;49.588;6.260;2022-11-21T14:09:54;17.53;;;4.33;;
28481;SDS011;15703;49.588;6.260;2022-11-21T14:12:27;16.83;;;4.73;;
28481;SDS011;15703;49.588;6.260;2022-11-21T14:17:43;13.50;;;3.63;;
28481;SDS011;15703;49.588;6.260;2022-11-21T14:20:13;11.30;;;4.30;;
28481;SDS011;15703;49.588;6.260;2022-11-21T14:22:39;13.00;;;4.23;;
28481;SDS011;15703;49.588;6.260;2022-11-21T14:25:12;11.27;;;4.33;;
28481;SDS011;15703;49.588;6.260;2022-11-21T14:27:37;12.60;;;4.07;;
28481;SDS011;15703;49.588;6.260;2022-11-21T14:30:27;14.77;;;4.60;;
28481;SDS011;15703;49.588;6.260;2022-11-21T14:32:50;15.47;;;5.77;;
28481;SDS011;15703;49.588;6.260;2022-11-21T14:35:19;13.43;;;3.77;;
28481;SDS011;15703;49.588;6.260;2022-11-21T14:37:44;15.03;;;4.80;;
28481;SDS011;15703;49.588;6.260;2022-11-21T14:40:12;11.77;;;3.57;;
28481;SDS011;15703;49.588;6.260;2022-11-21T14:42:35;13.43;;;3.70;;
28481;SDS011;15703;49.588;6.260;2022-11-21T14:45:05;13.07;;;4.40;;
28481;SDS011;15703;49.588;6.260;2022-11-21T14:47:28;12.00;;;3.90;;
28481;SDS011;15703;49.588;6.260;2022-11-21T14:49:55;13.23;;;3.97;;
28481;SDS011;15703;49.588;6.260;2022-11-21T14:52:26;15.47;;;5.27;;
28481;SDS011;15703;49.588;6.260;2022-11-21T14:54:54;11.23;;;4.17;;
28481;SDS011;15703;49.588;6.260;2022-11-21T14:57:39;9.27;;;3.93;;
28481;SDS011;15703;49.588;6.260;2022-11-21T15:00:04;15.43;;;4.90;;
28481;SDS011;15703;49.588;6.260;2022-11-21T15:02:28;23.40;;;4.87;;
28481;SDS011;15703;49.588;6.260;2022-11-21T15:04:54;15.47;;;4.50;;
28481;SDS011;15703;49.588;6.260;2022-11-21T15:09:51;18.83;;;4.30;;
28481;SDS011;15703;49.588;6.260;2022-11-21T15:12:59;13.77;;;3.97;;
28481;SDS011;15703;49.588;6.260;2022-11-21T15:20:52;9.77;;;4.17;;
28481;SDS011;15703;49.588;6.260;2022-11-21T15:23:25;15.90;;;4.77;;
28481;SDS011;15703;49.588;6.260;2022-11-21T15:25:48;15.27;;;4.30;;
28481;SDS011;15703;49.588;6.260;2022-11-21T15:28:14;9.83;;;4.60;;
28481;SDS011;15703;49.588;6.260;2022-11-21T15:30:38;9.97;;;5.10;;
28481;SDS011;15703;49.588;6.260;2022-11-21T15:33:03;14.23;;;5.07;;
28481;SDS011;15703;49.588;6.260;2022-11-21T15:38:15;10.93;;;3.83;;
28481;SDS011;15703;49.588;6.260;2022-11-21T15:40:38;10.33;;;3.87;;
28481;SDS011;15703;49.588;6.260;2022-11-21T15:43:07;9.33;;;4.10;;
28481;SDS011;15703;49.588;6.260;2022-11-21T15:45:30;8.90;;;4.37;;
28481;SDS011;15703;49.588;6.260;2022-11-21T15:47:53;9.40;;;4.67;;
28481;SDS011;15703;49.588;6.260;2022-11-21T15:50:21;17.77;;;5.40;;
28481;SDS011;15703;49.588;6.260;2022-11-21T15:52:44;12.00;;;4.87;;
28481;SDS011;15703;49.588;6.260;2022-11-21T15:55:12;12.13;;;5.20;;
28481;SDS011;15703;49.588;6.260;2022-11-21T15:57:38;10.57;;;4.87;;
28481;SDS011;15703;49.588;6.260;2022-11-21T16:00:00;11.87;;;4.40;;
28481;SDS011;15703;49.588;6.260;2022-11-21T16:02:31;11.27;;;4.67;;
28481;SDS011;15703;49.588;6.260;2022-11-21T16:04:54;12.57;;;4.37;;
28481;SDS011;15703;49.588;6.260;2022-11-21T16:07:20;15.10;;;5.70;;
28481;SDS011;15703;49.588;6.260;2022-11-21T16:09:45;11.17;;;4.33;;
28481;SDS011;15703;49.588;6.260;2022-11-21T16:12:08;11.10;;;4.17;;